Time;durP1;ratioP1;P1;durP2;ratioP2;P2;SDS_P1;SDS_P2;PMS_P1;PMS_P2;Temp;Humidity;BMP_temperature;BMP_pressure;BME280_temperature;BME280_humidity;BME280_pressure;Samples;Min_cycle;Max_cycle;Signal;HPM_P1;HPM_P2
2022/05/02 00:01:16;;;;;;;9.68;8.73;;;;;;;11.53;65.45;96824.59;4956028;29;20501;-82
2022/05/02 00:03:44;;;;;;;9.73;8.82;;;;;;;11.50;65.80;96829.38;4956109;29;20612;-82
2022/05/02 00:06:13;;;;;;;11.10;9.45;;;;;;;11.45;66.14;96827.31;4964407;29;20062;-82
2022/05/02 00:08:40;;;;;;;14.10;9.63;;;;;;;11.42;66.05;96824.28;4956132;28;20063;-82
2022/05/02 00:11:08;;;;;;;9.90;8.82;;;;;;;11.38;66.28;96821.19;4965248;29;20061;-82
2022/05/02 00:13:35;;;;;;;10.80;8.95;;;;;;;11.37;66.26;96813.53;4955647;29;20054;-82
2022/05/02 00:16:03;;;;;;;9.57;8.50;;;;;;;11.38;66.92;96818.59;4954549;29;20051;-82
2022/05/02 00:18:31;;;;;;;10.27;9.25;;;;;;;11.37;66.29;96814.38;4979663;23;20126;-82
2022/05/02 00:20:59;;;;;;;11.15;8.73;;;;;;;11.34;66.24;96812.09;4975143;28;20058;-82
2022/05/02 00:23:28;;;;;;;10.52;9.38;;;;;;;11.31;66.30;96820.31;4976198;28;20177;-82
2022/05/02 00:25:56;;;;;;;9.38;8.48;;;;;;;11.30;66.58;96803.00;4975314;28;20433;-82
2022/05/02 00:28:23;;;;;;;8.80;8.00;;;;;;;11.28;66.50;96810.22;4975913;28;20509;-82
2022/05/02 00:30:51;;;;;;;10.07;8.98;;;;;;;11.23;66.45;96802.13;4976416;28;20497;-81
2022/05/02 00:33:20;;;;;;;9.23;8.32;;;;;;;11.17;66.51;96802.81;4976454;28;20054;-82
2022/05/02 00:35:47;;;;;;;10.10;8.85;;;;;;;11.11;66.79;96805.19;4975914;28;20061;-81
2022/05/02 00:38:15;;;;;;;10.85;8.75;;;;;;;11.06;66.90;96796.25;4976675;28;20070;-82
2022/05/02 00:40:44;;;;;;;10.80;9.27;;;;;;;11.00;67.09;96800.41;4976225;28;20057;-82
2022/05/02 00:43:11;;;;;;;9.05;8.15;;;;;;;10.96;67.25;96795.72;4976233;28;20061;-81
2022/05/02 00:45:39;;;;;;;10.85;8.27;;;;;;;10.90;67.36;96799.84;4976208;28;20531;-82
2022/05/02 00:48:08;;;;;;;9.45;8.48;;;;;;;10.85;67.54;96802.19;4975706;28;20054;-80
2022/05/02 00:50:37;;;;;;;10.55;8.88;;;;;;;10.81;67.53;96793.09;4974072;28;20424;-81
2022/05/02 00:53:07;;;;;;;11.18;8.88;;;;;;;10.79;67.80;96797.69;4984915;28;20114;-81
2022/05/02 00:55:35;;;;;;;11.32;9.73;;;;;;;10.73;68.04;96793.97;4988354;28;20061;-81
2022/05/02 00:58:05;;;;;;;9.73;8.73;;;;;;;10.68;68.29;96793.69;4987666;28;20062;-82
2022/05/02 01:00:35;;;;;;;10.55;9.30;;;;;;;10.61;68.54;96793.59;4997597;28;20110;-80
2022/05/02 01:03:04;;;;;;;11.25;9.45;;;;;;;10.56;69.09;96789.88;4989477;28;20057;-81
2022/05/02 01:05:36;;;;;;;11.50;10.30;;;;;;;10.51;69.21;96786.00;4989783;28;20133;-81
2022/05/02 01:08:05;;;;;;;13.38;10.85;;;;;;;10.46;69.58;96787.53;4989561;28;20065;-82
2022/05/02 01:10:33;;;;;;;11.27;9.73;;;;;;;10.41;69.95;96782.84;4989735;28;20057;-82
2022/05/02 01:13:00;;;;;;;11.15;9.98;;;;;;;10.42;69.90;96788.88;4990469;28;20065;-81
2022/05/02 01:15:29;;;;;;;11.65;10.43;;;;;;;10.39;70.38;96787.44;4999216;28;20118;-80
2022/05/02 01:17:57;;;;;;;10.07;9.07;;;;;;;10.40;70.47;96783.84;4988706;28;20489;-81
2022/05/02 01:20:26;;;;;;;10.20;9.25;;;;;;;10.44;70.64;96782.50;4993972;28;20045;-80
2022/05/02 01:22:53;;;;;;;11.75;10.55;;;;;;;10.47;70.17;96781.31;4994276;28;20106;-81
2022/05/02 01:25:21;;;;;;;12.02;9.63;;;;;;;10.44;69.90;96779.88;4988237;28;20050;-81
2022/05/02 01:27:48;;;;;;;13.77;11.13;;;;;;;10.39;70.16;96774.41;4985877;28;20053;-81
2022/05/02 01:30:16;;;;;;;12.18;10.55;;;;;;;10.33;69.85;96771.69;4986397;28;20106;-82
2022/05/02 01:32:44;;;;;;;12.48;11.18;;;;;;;10.26;69.84;96769.75;4988273;28;20055;-82
2022/05/02 01:35:11;;;;;;;12.45;11.25;;;;;;;10.19;70.37;96766.22;4988999;28;20060;-82
2022/05/02 01:37:40;;;;;;;12.50;11.20;;;;;;;10.16;70.54;96766.56;4987475;28;20053;-81
2022/05/02 01:40:09;;;;;;;11.70;10.60;;;;;;;10.14;70.47;96765.91;4987141;28;20046;-82
2022/05/02 01:42:36;;;;;;;12.18;10.95;;;;;;;10.13;70.45;96764.31;4997430;28;20050;-81
2022/05/02 01:45:05;;;;;;;10.50;9.50;;;;;;;10.20;71.79;96770.44;4986259;28;20428;-81
2022/05/02 01:47:32;;;;;;;10.73;9.70;;;;;;;10.25;71.17;96759.47;4985235;28;20054;-81
2022/05/02 01:50:00;;;;;;;12.88;11.20;;;;;;;10.22;70.19;96755.44;4987475;28;20047;-82
2022/05/02 01:52:27;;;;;;;12.38;11.07;;;;;;;10.19;70.38;96758.41;4987440;28;20055;-81
2022/05/02 01:54:56;;;;;;;12.23;11.00;;;;;;;10.19;70.01;96758.41;4990281;28;20055;-81
2022/05/02 01:57:24;;;;;;;13.15;11.27;;;;;;;10.18;69.90;96756.75;4995139;28;20110;-81
2022/05/02 01:59:51;;;;;;;13.45;12.05;;;;;;;10.13;69.78;96756.50;4989388;28;20065;-81
2022/05/02 02:02:19;;;;;;;16.42;12.30;;;;;;;10.08;69.98;96753.59;4985883;28;20053;-82
2022/05/02 02:07:32;;;;;;;13.35;11.98;;;;;;;9.98;70.15;96760.84;4983412;28;20066;-81
2022/05/02 02:10:00;;;;;;;15.27;11.93;;;;;;;9.94;70.26;96754.34;4984322;28;20065;-82
2022/05/02 02:12:28;;;;;;;12.35;11.05;;;;;;;9.89;70.36;96737.44;4987120;28;20047;-81
2022/05/02 02:14:55;;;;;;;14.02;12.20;;;;;;;9.86;70.25;96750.81;4986358;28;20047;-82
2022/05/02 02:17:23;;;;;;;14.60;12.57;;;;;;;9.83;70.19;96747.75;4986397;28;20049;-81
2022/05/02 02:19:51;;;;;;;15.05;12.25;;;;;;;9.76;70.58;96747.63;4988065;28;20054;-81
2022/05/02 02:22:18;;;;;;;14.73;12.38;;;;;;;9.73;70.40;96747.16;4995182;28;20139;-81
2022/05/02 02:24:47;;;;;;;13.35;11.18;;;;;;;9.69;70.70;96754.50;4987921;28;20047;-81
2022/05/02 02:27:16;;;;;;;14.13;11.52;;;;;;;9.66;70.66;96750.47;4987072;28;20078;-82
2022/05/02 02:29:44;;;;;;;15.48;12.25;;;;;;;9.64;70.63;96749.00;4986943;28;20055;-82
2022/05/02 02:32:11;;;;;;;14.70;12.60;;;;;;;9.61;70.71;96744.94;4987008;28;20106;-82
2022/05/02 02:34:39;;;;;;;12.48;11.18;;;;;;;9.61;70.92;96746.75;4989105;28;20465;-82
2022/05/02 02:37:07;;;;;;;16.92;12.38;;;;;;;9.62;70.78;96745.75;4984817;28;20050;-81
2022/05/02 02:39:34;;;;;;;13.43;12.02;;;;;;;9.58;70.68;96734.88;4986192;28;20066;-81
2022/05/02 02:42:02;;;;;;;15.18;13.15;;;;;;;9.53;70.79;96744.97;4994826;28;20050;-82
2022/05/02 02:44:31;;;;;;;15.43;11.95;;;;;;;9.51;71.09;96740.94;4986260;28;20050;-82
2022/05/02 02:46:58;;;;;;;14.43;12.82;;;;;;;9.51;70.70;96735.72;4986909;28;20267;-81
2022/05/02 02:49:26;;;;;;;19.02;13.88;;;;;;;9.47;70.91;96741.28;4995810;28;20047;-82
2022/05/02 02:51:54;;;;;;;15.35;12.93;;;;;;;9.42;70.66;96729.75;4987095;28;20532;-81
2022/05/02 02:54:21;;;;;;;16.20;12.82;;;;;;;9.37;70.95;96732.88;4995456;28;20058;-81
2022/05/02 02:56:49;;;;;;;18.65;14.48;;;;;;;9.32;70.97;96732.59;4986025;28;20512;-81
2022/05/02 02:59:17;;;;;;;14.88;13.27;;;;;;;9.26;70.92;96734.06;4986606;28;20055;-82
2022/05/02 03:01:46;;;;;;;16.30;14.13;;;;;;;9.22;71.46;96724.16;4986156;28;20059;-82
2022/05/02 03:06:59;;;;;;;19.08;14.25;;;;;;;9.16;71.18;96715.25;4984704;28;20050;-81
2022/05/02 03:09:29;;;;;;;18.80;15.70;;;;;;;9.12;71.34;96723.53;4985948;28;20050;-82
2022/05/02 03:11:56;;;;;;;17.48;14.43;;;;;;;9.06;71.59;96715.44;4986957;28;20522;-82
2022/05/02 03:14:24;;;;;;;17.50;13.88;;;;;;;9.01;71.65;96720.34;4986337;28;20059;-82
2022/05/02 03:16:53;;;;;;;17.15;14.35;;;;;;;8.96;71.93;96712.22;4984495;28;20050;-81
2022/05/02 03:19:20;;;;;;;18.73;14.45;;;;;;;8.94;71.66;96715.97;4984804;28;20050;-81
2022/05/02 03:21:48;;;;;;;15.77;13.50;;;;;;;8.94;71.97;96713.38;4985550;28;20054;-81
2022/05/02 03:24:16;;;;;;;15.20;13.57;;;;;;;8.92;71.81;96713.56;4984188;28;20505;-80
2022/05/02 03:26:43;;;;;;;16.13;14.15;;;;;;;8.96;72.70;96714.81;4995059;28;20110;-81
2022/05/02 03:29:11;;;;;;;17.60;13.30;;;;;;;8.99;72.13;96714.50;4982800;28;20062;-82
2022/05/02 03:31:38;;;;;;;17.48;13.02;;;;;;;8.97;71.71;96705.25;4982453;28;20050;-81
2022/05/02 03:34:07;;;;;;;18.83;13.65;;;;;;;8.90;71.89;96714.69;4982325;28;20068;-81
2022/05/02 03:36:35;;;;;;;18.42;14.90;;;;;;;8.83;72.17;96710.19;4983483;28;20497;-81
2022/05/02 03:39:04;;;;;;;18.15;15.38;;;;;;;8.78;71.93;96712.44;4983487;28;20078;-82
2022/05/02 03:41:31;;;;;;;17.60;15.32;;;;;;;8.73;72.31;96704.34;4984280;28;20053;-81
2022/05/02 03:43:59;;;;;;;18.17;16.10;;;;;;;8.68;72.51;96713.63;4985023;28;20051;-82
2022/05/02 03:46:27;;;;;;;20.50;15.65;;;;;;;8.61;72.46;96693.47;4984820;28;20489;-81
2022/05/02 03:48:55;;;;;;;20.33;16.23;;;;;;;8.56;72.70;96698.38;4983853;28;20064;-80
2022/05/02 03:51:24;;;;;;;19.38;16.13;;;;;;;8.53;72.97;96703.91;4981414;28;20174;-82
2022/05/02 03:53:51;;;;;;;22.25;17.20;;;;;;;8.50;73.28;96699.03;4981471;28;20063;-82
2022/05/02 03:56:19;;;;;;;17.83;15.10;;;;;;;8.50;73.25;96696.44;4979826;28;20051;-82
2022/05/02 03:58:46;;;;;;;20.83;16.50;;;;;;;8.52;73.27;96698.88;4982054;28;20050;-81
2022/05/02 04:01:14;;;;;;;16.85;14.52;;;;;;;8.54;73.62;96697.72;4983052;28;20053;-82
2022/05/02 04:03:41;;;;;;;17.60;15.43;;;;;;;8.58;73.39;96699.03;4981941;28;20111;-82
2022/05/02 04:06:09;;;;;;;21.65;16.40;;;;;;;8.60;73.03;96699.66;4981476;28;20057;-81
2022/05/02 04:08:38;;;;;;;22.70;17.83;;;;;;;8.60;73.19;96702.28;4981946;28;20054;-81
2022/05/02 04:11:05;;;;;;;17.38;15.50;;;;;;;8.60;73.10;96701.47;4982053;28;20059;-82
2022/05/02 04:13:33;;;;;;;20.60;17.50;;;;;;;8.60;73.01;96693.66;4984395;28;20057;-82
2022/05/02 04:16:00;;;;;;;19.52;15.98;;;;;;;8.63;73.38;96698.53;4982414;28;20043;-81
2022/05/02 04:18:28;;;;;;;18.90;15.68;;;;;;;8.69;73.40;96697.84;4981769;28;20054;-81
2022/05/02 04:20:56;;;;;;;18.70;16.27;;;;;;;8.71;72.56;96705.50;4981108;28;20057;-81
2022/05/02 04:23:23;;;;;;;19.77;16.77;;;;;;;8.68;72.75;96703.22;4982010;28;20051;-82
2022/05/02 04:25:52;;;;;;;25.95;17.35;;;;;;;8.65;72.74;96697.38;4981487;28;20043;-81
2022/05/02 04:28:20;;;;;;;20.67;17.33;;;;;;;8.65;72.78;96699.16;4983068;28;20055;-82
2022/05/02 04:30:47;;;;;;;20.48;16.70;;;;;;;8.64;72.85;96697.56;4981688;28;20059;-81
2022/05/02 04:33:16;;;;;;;19.10;15.90;;;;;;;8.66;73.51;96696.41;4968890;28;20051;-81
2022/05/02 04:35:43;;;;;;;18.77;16.20;;;;;;;8.72;72.98;96692.31;4963275;29;20059;-81
2022/05/02 04:38:11;;;;;;;19.35;17.08;;;;;;;8.74;72.60;96690.34;4961416;28;20054;-81
2022/05/02 04:40:38;;;;;;;20.63;17.02;;;;;;;8.72;72.45;96689.72;4988750;28;20043;-80
2022/05/02 04:43:07;;;;;;;19.85;16.88;;;;;;;8.70;72.50;96690.88;4988011;28;20055;-81
2022/05/02 04:45:35;;;;;;;21.80;18.30;;;;;;;8.67;72.63;96684.22;4974726;28;20067;-81
2022/05/02 04:48:03;;;;;;;22.58;17.17;;;;;;;8.64;72.76;96694.97;4968364;28;20051;-81
2022/05/02 04:50:30;;;;;;;23.48;18.55;;;;;;;8.62;72.92;96702.91;4961527;28;20051;-79
2022/05/02 04:52:58;;;;;;;24.38;18.35;;;;;;;8.61;72.75;96693.47;4976744;28;20051;-82
2022/05/02 04:55:26;;;;;;;22.73;17.38;;;;;;;8.64;72.84;96700.97;4976336;28;20050;-81
2022/05/02 04:57:53;;;;;;;21.88;17.20;;;;;;;8.68;72.84;96700.63;4967880;28;20081;-81
2022/05/02 05:00:23;;;;;;;23.00;17.83;;;;;;;8.65;72.87;96707.78;4955964;29;20058;-81
2022/05/02 05:02:50;;;;;;;21.60;17.73;;;;;;;8.63;72.65;96696.72;4974387;28;20107;-80
2022/05/02 05:05:21;;;;;;;21.63;18.02;;;;;;;8.61;72.59;96696.06;4989130;28;20061;-80
2022/05/02 05:07:48;;;;;;;24.48;17.73;;;;;;;8.59;72.78;96698.06;4989424;28;20085;-81
2022/05/02 05:10:16;;;;;;;19.50;16.77;;;;;;;8.59;73.06;96708.47;4991795;28;20110;-81
2022/05/02 05:12:54;;;;;;;24.92;17.92;;;;;;;8.60;73.29;96699.66;4987345;28;20043;-81
2022/05/02 05:18:36;;;;;;;23.35;16.98;;;;;;;8.65;73.25;96697.38;4973205;28;20075;-81
2022/05/02 05:21:08;;;;;;;20.92;17.42;;;;;;;8.71;72.86;96695.91;4977183;28;20057;-81
2022/05/02 05:24:46;;;;;;;20.45;16.67;;;;;;;8.77;73.43;96695.25;4981198;28;20537;-76
2022/05/02 05:27:31;;;;;;;25.38;18.73;;;;;;;8.82;74.77;96692.94;4954061;28;20047;-78
2022/05/02 05:30:04;;;;;;;20.85;17.92;;;;;;;8.90;73.19;96697.31;4978438;28;20059;-81
2022/05/02 05:32:41;;;;;;;18.95;16.95;;;;;;;8.93;73.23;96694.34;4963668;29;20051;-81
2022/05/02 05:35:10;;;;;;;19.02;16.65;;;;;;;8.99;73.45;96698.09;4968920;28;20106;-82
2022/05/02 05:38:02;;;;;;;22.77;18.05;;;;;;;9.06;73.87;96694.63;4971507;28;20103;-80
2022/05/02 05:40:35;;;;;;;22.42;18.33;;;;;;;9.13;72.78;96691.34;4975228;28;20086;-82
2022/05/02 05:43:16;;;;;;;19.88;16.08;;;;;;;9.19;73.53;96693.28;4994629;28;20061;-82
2022/05/02 05:45:53;;;;;;;20.63;16.02;;;;;;;9.27;73.25;96690.63;4975251;28;20055;-81
2022/05/02 05:48:36;;;;;;;20.02;16.20;;;;;;;9.34;74.17;96701.97;4971140;28;20043;-82
2022/05/02 05:51:19;;;;;;;25.85;17.77;;;;;;;9.47;76.71;96701.44;4969048;29;20065;-81
2022/05/02 05:53:56;;;;;;;20.65;17.55;;;;;;;9.60;76.82;96704.28;4972366;28;20057;-81
2022/05/02 05:56:40;;;;;;;20.17;16.25;;;;;;;9.72;77.11;96696.06;4972030;28;20047;-81
2022/05/02 05:59:09;;;;;;;20.35;16.58;;;;;;;9.81;76.63;96703.63;4981830;28;20055;-80
2022/05/02 06:01:56;;;;;;;16.88;15.18;;;;;;;9.85;75.39;96699.69;4978498;28;20051;-82
2022/05/02 06:04:28;;;;;;;20.20;15.35;;;;;;;9.93;76.54;96695.38;4989488;28;20146;-81
2022/05/02 06:06:56;;;;;;;18.85;16.40;;;;;;;9.99;75.53;96702.50;4970501;28;20054;-81
2022/05/02 06:09:25;;;;;;;21.45;16.33;;;;;;;10.06;75.86;96701.66;4974524;28;20073;-81
2022/05/02 06:11:55;;;;;;;22.95;17.60;;;;;;;10.09;73.82;96701.28;4957759;28;20058;-81
2022/05/02 06:14:27;;;;;;;18.73;16.35;;;;;;;10.10;73.46;96702.09;4957424;29;20077;-81
2022/05/02 06:19:47;;;;;;;18.48;14.48;;;;;;;10.21;72.55;96703.47;4967092;28;20047;-81
2022/05/02 06:22:18;;;;;;;21.73;16.08;;;;;;;10.28;72.81;96705.19;4978209;28;20054;-81
2022/05/02 06:24:49;;;;;;;17.52;14.68;;;;;;;10.36;72.24;96708.75;4977249;28;20054;-81
2022/05/02 06:27:17;;;;;;;18.07;15.97;;;;;;;10.42;71.97;96702.81;4978186;28;20053;-82
2022/05/02 06:29:45;;;;;;;20.27;15.23;;;;;;;10.48;71.84;96705.53;4961825;28;20289;-81
2022/05/02 06:32:15;;;;;;;18.77;15.98;;;;;;;10.53;71.41;96705.00;4970132;28;20055;-80
2022/05/02 06:34:43;;;;;;;18.95;16.40;;;;;;;10.61;71.21;96707.53;4975720;28;20046;-81
2022/05/02 06:37:32;;;;;;;18.65;15.50;;;;;;;10.67;71.27;96714.63;4976493;28;20043;-80
2022/05/02 06:40:07;;;;;;;22.08;17.85;;;;;;;10.76;70.99;96706.69;4976170;28;20061;-81
2022/05/02 06:42:39;;;;;;;22.92;20.10;;;;;;;10.85;70.88;96709.06;4966512;28;20047;-82
2022/05/02 06:45:22;;;;;;;22.90;18.27;;;;;;;10.97;70.67;96709.41;4960090;28;20058;-80
2022/05/02 06:47:54;;;;;;;;;;;;;;;11.09;70.72;96707.16;4978338;28;20062;-81
2022/05/02 06:50:26;;;;;;;18.60;15.00;;;;;;;11.20;70.39;96713.72;4961183;28;19930;-81
2022/05/02 06:53:15;;;;;;;18.45;16.27;;;;;;;11.31;70.09;96702.78;4966421;28;20050;-81
2022/05/02 06:55:52;;;;;;;21.20;17.15;;;;;;;11.43;69.55;96713.56;4972402;28;20055;-80
2022/05/02 06:58:37;;;;;;;17.67;15.77;;;;;;;11.54;69.49;96706.06;4978021;28;20053;-81
2022/05/02 07:01:15;;;;;;;20.08;16.45;;;;;;;11.67;69.16;96704.56;4977266;28;20425;-80
2022/05/02 07:04:02;;;;;;;19.80;15.60;;;;;;;11.80;68.86;96709.13;4981489;28;20051;-82
2022/05/02 07:06:44;;;;;;;19.30;16.40;;;;;;;11.95;68.46;96709.91;4982236;28;20110;-81
2022/05/02 07:09:20;;;;;;;18.90;16.05;;;;;;;12.08;68.36;96702.16;4973246;28;20051;-82
2022/05/02 07:12:00;;;;;;;22.88;16.45;;;;;;;12.24;68.37;96706.31;4965179;28;20062;-82
2022/05/02 07:14:36;;;;;;;19.13;17.00;;;;;;;12.39;67.80;96702.81;4979701;28;20063;-81
2022/05/02 07:17:14;;;;;;;19.63;17.40;;;;;;;12.54;68.04;96698.28;4967834;28;20058;-82
2022/05/02 07:19:54;;;;;;;18.58;16.05;;;;;;;12.69;69.93;96693.75;4970625;28;20051;-79
2022/05/02 07:22:30;;;;;;;19.65;17.58;;;;;;;12.86;67.33;96690.81;4960588;28;20050;-80
2022/05/02 07:25:08;;;;;;;19.33;16.85;;;;;;;13.01;66.76;96690.69;4986856;28;20054;-80
2022/05/02 07:27:56;;;;;;;17.85;15.63;;;;;;;13.17;67.55;96691.16;4970511;29;20062;-80
2022/05/02 07:30:25;;;;;;;28.70;15.93;;;;;;;13.31;67.06;96688.63;4959770;28;20059;-81
2022/05/02 07:32:54;;;;;;;26.02;16.35;;;;;;;13.44;66.94;96686.03;4977725;28;20055;-82
2022/05/02 07:35:24;;;;;;;16.98;15.05;;;;;;;13.58;66.08;96689.50;4979332;28;20050;-80
2022/05/02 07:37:54;;;;;;;19.02;14.40;;;;;;;13.72;65.65;96687.72;4982182;28;20055;-82
2022/05/02 07:40:23;;;;;;;16.73;13.88;;;;;;;13.87;65.73;96685.72;4970153;28;20479;-82
2022/05/02 07:42:53;;;;;;;16.65;12.38;;;;;;;14.01;62.48;96683.91;4983673;28;20496;-81
2022/05/02 07:45:27;;;;;;;17.58;12.82;;;;;;;14.17;60.99;96685.34;4961026;28;20134;-82
2022/05/02 07:48:00;;;;;;;12.38;10.73;;;;;;;14.33;61.90;96684.91;4960082;28;20051;-82
2022/05/02 07:50:28;;;;;;;;;;;;;;;14.49;61.88;96682.88;4978064;28;20724;-81
2022/05/02 07:52:58;;;;;;;16.30;11.55;;;;;;;14.61;59.83;96681.28;4975733;28;19926;-81
2022/05/02 07:55:31;;;;;;;41.17;30.13;;;;;;;14.76;62.02;96679.22;4972990;28;20054;-81
2022/05/02 07:57:59;;;;;;;21.10;15.88;;;;;;;14.92;61.21;96685.84;4956673;29;20520;-81
2022/05/02 08:00:27;;;;;;;12.73;10.90;;;;;;;15.05;59.64;96687.63;4957307;28;20043;-81
2022/05/02 08:02:54;;;;;;;10.75;9.65;;;;;;;15.18;59.66;96690.19;4956124;29;20051;-80
2022/05/02 08:05:26;;;;;;;11.60;10.40;;;;;;;15.32;58.21;96687.50;4969586;28;21606;-80
2022/05/02 08:08:03;;;;;;;11.07;9.95;;;;;;;15.45;58.33;96682.19;4956766;28;20113;-81
2022/05/02 08:10:52;;;;;;;11.05;9.48;;;;;;;15.62;57.01;96687.75;4975347;28;20046;-82
2022/05/02 08:13:36;;;;;;;11.48;10.23;;;;;;;15.74;55.61;96680.84;4984700;28;20054;-82
2022/05/02 08:16:15;;;;;;;12.18;9.75;;;;;;;15.90;55.60;96692.69;4968289;28;20531;-82
2022/05/02 08:19:04;;;;;;;11.63;9.52;;;;;;;16.05;54.63;96687.13;4967447;28;20074;-82
2022/05/02 08:21:38;;;;;;;10.27;8.63;;;;;;;16.10;56.92;96684.63;5040209;23;20047;-80
2022/05/02 08:27:33;;;;;;;9.73;8.73;;;;;;;16.38;53.32;96686.84;4995936;28;20035;-83
2022/05/02 08:30:08;;;;;;;11.93;9.18;;;;;;;16.42;52.44;96687.19;4995430;28;20059;-82
2022/05/02 08:33:00;;;;;;;10.75;9.13;;;;;;;16.44;52.48;96685.16;4980450;28;20047;-81
2022/05/02 08:35:43;;;;;;;11.75;9.60;;;;;;;16.48;51.22;96689.75;4995480;28;20058;-83
2022/05/02 08:38:38;;;;;;;11.48;9.98;;;;;;;16.48;51.51;96687.13;5032982;23;20045;-83
2022/05/02 08:41:48;;;;;;;10.30;9.15;;;;;;;16.45;50.96;96681.50;5007303;23;20042;-81
2022/05/02 08:44:58;;;;;;;11.80;9.07;;;;;;;16.43;51.65;96689.63;4998867;28;20042;-83
2022/05/02 08:48:18;;;;;;;10.70;9.60;;;;;;;16.51;52.34;96677.19;4999206;28;20046;-84
2022/05/02 08:57:09;;;;;;;13.50;11.98;;;;;;;16.78;52.15;96681.19;4976585;28;20032;-82
2022/05/02 09:00:16;;;;;;;10.30;9.20;;;;;;;16.84;50.31;96680.34;4964769;28;20056;-83
2022/05/02 09:04:02;;;;;;;11.02;9.23;;;;;;;16.91;51.33;96679.47;4952797;28;20032;-82
2022/05/02 09:07:20;;;;;;;10.50;8.43;;;;;;;17.03;51.94;96672.41;4997740;23;20106;-81
2022/05/02 09:10:16;;;;;;;9.25;8.35;;;;;;;17.15;51.74;96675.13;4960943;28;20055;-82
2022/05/02 09:13:19;;;;;;;10.73;9.60;;;;;;;17.12;50.62;96679.03;4979151;28;20042;-82
2022/05/02 09:16:39;;;;;;;10.52;9.48;;;;;;;17.08;50.54;96676.00;4978554;28;20037;-83
2022/05/02 09:22:32;;;;;;;10.38;9.23;;;;;;;17.08;50.54;96680.47;1068901;23;20313;-82
2022/05/02 09:25:27;;;;;;;10.52;9.13;;;;;;;17.06;50.00;96685.16;4984077;28;20043;-81
2022/05/02 09:27:56;;;;;;;9.85;8.63;;;;;;;16.98;50.04;96677.56;5002082;28;20050;-81
2022/05/02 09:31:17;;;;;;;9.55;8.65;;;;;;;16.92;50.21;96679.22;4982432;28;20043;-81
2022/05/02 09:34:03;;;;;;;11.57;10.25;;;;;;;16.84;49.83;96680.34;4887174;29;20037;-82
2022/05/02 09:36:40;;;;;;;10.02;9.02;;;;;;;16.79;50.46;96677.53;4981531;28;20055;-82
2022/05/02 09:39:26;;;;;;;9.73;8.70;;;;;;;16.79;50.90;96676.72;4982690;28;20070;-82
2022/05/02 09:42:27;;;;;;;10.43;9.05;;;;;;;16.77;50.18;96670.84;4980901;28;20039;-81
2022/05/02 09:51:46;;;;;;;8.43;7.63;;;;;;;17.06;49.84;96678.06;4982210;28;20039;-82
2022/05/02 09:58:00;;;;;;;8.82;7.57;;;;;;;17.34;49.37;96678.53;4671165;26;20031;-80
2022/05/02 10:03:36;;;;;;;8.23;7.35;;;;;;;17.55;47.75;96662.22;4978546;28;20086;-88
2022/05/02 10:06:05;;;;;;;6.85;6.15;;;;;;;17.50;50.23;96662.09;4976092;28;20478;-81
2022/05/02 10:08:53;;;;;;;8.30;6.90;;;;;;;17.43;48.56;96656.13;4979336;28;20058;-79
2022/05/02 10:11:49;;;;;;;7.63;6.82;;;;;;;17.36;47.15;96665.94;4970815;28;20074;-80
2022/05/02 10:14:35;;;;;;;7.72;6.95;;;;;;;17.19;47.28;96656.00;4965110;28;20082;-80
2022/05/02 10:17:07;;;;;;;8.52;7.57;;;;;;;17.08;48.04;96654.94;4969099;29;20106;-80
2022/05/02 10:20:04;;;;;;;8.60;7.67;;;;;;;17.04;48.47;96652.97;4980076;29;20144;-80
2022/05/02 10:22:43;;;;;;;8.30;6.65;;;;;;;17.06;48.32;96653.53;4979262;28;20043;-79
2022/05/02 10:25:16;;;;;;;9.63;6.57;;;;;;;17.12;48.68;96654.47;4972772;28;20035;-80
2022/05/02 10:28:04;;;;;;;8.70;6.88;;;;;;;17.27;47.38;96650.44;4978006;28;20059;-79
2022/05/02 10:30:43;;;;;;;8.13;6.95;;;;;;;17.33;46.72;96650.56;4978305;28;20057;-78
2022/05/02 10:33:15;;;;;;;7.30;6.22;;;;;;;17.40;47.23;96643.38;4979207;29;20089;-79
2022/05/02 10:35:46;;;;;;;7.40;6.70;;;;;;;17.48;46.78;96643.84;4979279;29;20111;-79
2022/05/02 10:38:21;;;;;;;8.90;7.18;;;;;;;17.44;46.29;96642.69;4979014;29;20130;-79
2022/05/02 10:40:51;;;;;;;8.55;7.53;;;;;;;17.42;46.67;96638.69;4978648;29;20048;-79
2022/05/02 10:43:26;;;;;;;10.20;7.50;;;;;;;17.50;46.41;96641.81;4979414;29;20043;-79
2022/05/02 10:45:54;;;;;;;8.82;7.50;;;;;;;17.65;46.51;96638.75;4978764;28;20110;-80
2022/05/02 10:48:36;;;;;;;8.80;7.85;;;;;;;17.85;47.41;96640.31;4978424;28;20082;-79
2022/05/02 10:51:11;;;;;;;9.35;7.65;;;;;;;18.02;46.94;96637.84;4977687;29;20123;-75
2022/05/02 10:54:08;;;;;;;7.82;6.75;;;;;;;18.15;46.95;96634.16;4956260;29;20051;-77
2022/05/02 10:59:13;;;;;;;7.97;7.07;;;;;;;18.33;44.61;96621.63;4968008;28;20044;-82
2022/05/02 11:02:15;;;;;;;6.95;6.25;;;;;;;18.50;44.83;96620.97;4979067;28;20057;-83
2022/05/02 11:05:05;;;;;;;7.90;6.72;;;;;;;18.59;44.24;96621.41;4979817;28;20087;-82
2022/05/02 11:07:44;;;;;;;7.68;6.97;;;;;;;18.54;43.21;96630.00;4979513;28;20027;-81
2022/05/02 11:10:13;;;;;;;10.55;6.57;;;;;;;18.48;44.07;96621.19;4980148;28;20039;-81
2022/05/02 11:12:42;;;;;;;7.32;6.22;;;;;;;18.41;44.77;96622.31;4971460;28;20047;-82
2022/05/02 11:15:17;;;;;;;7.28;6.15;;;;;;;18.35;46.06;96616.13;4975294;28;20111;-82
2022/05/02 11:18:07;;;;;;;8.00;7.20;;;;;;;18.34;44.17;96622.44;4978693;28;20062;-81
2022/05/02 11:20:48;;;;;;;7.05;6.35;;;;;;;18.40;45.51;96613.59;4979937;28;20047;-81
2022/05/02 11:23:46;;;;;;;7.40;6.70;;;;;;;18.56;44.87;96619.22;4979936;28;20061;-81
2022/05/02 11:26:21;;;;;;;7.78;6.15;;;;;;;18.69;43.54;96606.56;4979388;28;20057;-81
2022/05/02 11:29:05;;;;;;;8.00;6.47;;;;;;;18.84;43.15;96610.56;4979783;28;20069;-81
2022/05/02 11:31:41;;;;;;;6.70;6.10;;;;;;;18.95;44.38;96607.09;4979715;28;20075;-81
2022/05/02 11:34:23;;;;;;;6.15;5.55;;;;;;;19.10;44.39;96606.59;4979502;28;20036;-81
2022/05/02 11:36:55;;;;;;;5.60;5.05;;;;;;;19.28;44.98;96597.66;4978705;28;20119;-82
2022/05/02 11:39:33;;;;;;;9.43;5.50;;;;;;;19.43;44.17;96599.78;4978826;28;20094;-82
2022/05/02 11:42:09;;;;;;;10.07;6.72;;;;;;;19.59;43.56;96593.72;4979275;28;20043;-82
2022/05/02 11:44:47;;;;;;;6.53;5.88;;;;;;;19.74;43.09;96599.31;4979826;28;20054;-81
2022/05/02 11:47:22;;;;;;;8.07;7.13;;;;;;;19.75;41.68;96594.81;4978558;28;20050;-82
2022/05/02 11:49:58;;;;;;;5.47;5.03;;;;;;;19.74;43.47;96585.25;4979452;28;20042;-82
2022/05/02 11:52:32;;;;;;;7.38;6.68;;;;;;;19.79;41.82;96581.88;4979492;28;20046;-81
2022/05/02 11:55:01;;;;;;;8.32;7.40;;;;;;;19.84;41.65;96584.63;4979390;28;20039;-80
2022/05/02 11:57:36;;;;;;;7.53;6.80;;;;;;;19.86;42.91;96579.88;4978679;28;20105;-80
2022/05/02 12:00:12;;;;;;;8.13;7.43;;;;;;;19.84;42.04;96579.31;4979330;28;20047;-81
2022/05/02 12:02:51;;;;;;;6.82;6.10;;;;;;;19.72;42.13;96577.56;4979204;28;20039;-82
2022/05/02 12:05:25;;;;;;;8.60;6.50;;;;;;;19.66;42.42;96586.44;4979817;28;20027;-81
2022/05/02 12:07:55;;;;;;;6.35;5.85;;;;;;;19.68;41.86;96579.06;4979357;28;20036;-82
2022/05/02 12:10:34;;;;;;;6.53;5.93;;;;;;;19.74;41.02;96580.78;4979382;28;20342;-80
2022/05/02 12:13:02;;;;;;;6.63;6.00;;;;;;;19.77;41.16;96576.84;4979962;28;20058;-81
2022/05/02 12:15:31;;;;;;;6.10;5.60;;;;;;;19.81;41.97;96579.78;4979447;28;20039;-81
2022/05/02 12:18:04;;;;;;;5.30;4.90;;;;;;;19.91;42.11;96575.47;4979286;28;20035;-82
2022/05/02 12:20:34;;;;;;;10.50;5.80;;;;;;;20.02;40.51;96571.13;4960547;28;20036;-82
2022/05/02 12:23:19;;;;;;;8.68;5.30;;;;;;;20.10;40.54;96573.38;4960525;28;20036;-83
2022/05/02 12:25:56;;;;;;;10.27;6.10;;;;;;;20.06;40.27;96576.75;4988338;23;20123;-80
2022/05/02 12:28:43;;;;;;;7.55;6.22;;;;;;;19.96;40.47;96567.59;4967140;28;20046;-80
2022/05/02 12:31:16;;;;;;;10.13;7.22;;;;;;;19.89;41.84;96566.94;4998735;28;20057;-80
2022/05/02 12:34:00;;;;;;;10.65;7.55;;;;;;;19.88;42.41;96569.88;4998903;28;20037;-80
2022/05/02 12:36:37;;;;;;;8.35;7.43;;;;;;;19.85;42.17;96587.00;4981695;28;20074;-80
2022/05/02 12:39:13;;;;;;;9.32;8.43;;;;;;;19.81;42.54;96579.78;4979015;28;20042;-80
2022/05/02 12:41:53;;;;;;;9.75;8.75;;;;;;;19.73;42.66;96573.06;4979650;28;20180;-79